KAEX/AEX METAR and TAF weather

Enter ICAO airport designator
Station Type Date Time Source
KAEX METAR 2019/04/24 21:53 UTC NOAA

KAEX 242153Z 17008KT 10SM FEW042 25/17 A2984 RMK AO2 SLP107 T02500172


Station Type Date Time Source
KAEX Decoded METAR 2019/04/24 21:53 UTC NOAA

ALEXANDRIA INTERNATIONAL AIRPORT, LA, United States (KAEX) 31-33N 092-56W 27M
Apr 24, 2019 - 05:53 PM EDT / 2019.04.24 2153 UTC
Wind: from the S (170 degrees) at 9 MPH (8 KT):0
Visibility: 10 mile(s):0
Sky conditions: mostly clear
Temperature: 77.0 F (25.0 C)
Dew Point: 63.0 F (17.2 C)
Relative Humidity: 61%
Pressure (altimeter): 29.84 in. Hg (1010 hPa)
ob: KAEX 242153Z 17008KT 10SM FEW042 25/17 A2984 RMK AO2 SLP107 T02500172
cycle: 22

Station Type Date Time Source
KAEX TAF 2019/04/24 18:42 UTC NOAA

TAF KAEX 241738Z 2418/2518 16010KT P6SM SCT040 BKN250
FM250300 15008KT P6SM VCSH SCT025 OVC035
TEMPO 2506/2510 VRB25G35KT 2SM +TSRA OVC015CB
FM251200 19009KT P6SM VCTS OVC012CB
FM251400 25011KT P6SM VCTS BKN025CB OVC040 PROB30 2514/2518 3SM SHRA OVC015

Example: see airport list